sensor_id;sensor_type;location;lat;lon;timestamp;temperature;humidity
46758;DHT22;32509;47.750;-3.396;2023-01-09T09:28:14;9.20;99.90
46758;DHT22;32509;47.750;-3.396;2023-01-09T09:30:40;9.20;99.90
46758;DHT22;32509;47.750;-3.396;2023-01-09T09:33:08;9.30;99.90
46758;DHT22;32509;47.750;-3.396;2023-01-09T09:35:33;9.40;99.90
46758;DHT22;32509;47.750;-3.396;2023-01-09T09:38:03;9.50;99.90
46758;DHT22;32509;47.750;-3.396;2023-01-09T09:43:31;9.70;99.90
46758;DHT22;32509;47.750;-3.396;2023-01-09T09:49:27;10.00;99.90
46758;DHT22;32509;47.750;-3.396;2023-01-09T09:53:04;10.00;99.90
46758;DHT22;32509;47.750;-3.396;2023-01-09T09:55:00;10.10;99.90
46758;DHT22;32509;47.750;-3.396;2023-01-09T09:57:35;10.20;99.90
46758;DHT22;32509;47.750;-3.396;2023-01-09T10:00:03;10.20;99.90
46758;DHT22;32509;47.750;-3.396;2023-01-09T10:02:41;10.30;99.90
46758;DHT22;32509;47.750;-3.396;2023-01-09T10:05:26;10.40;99.90
46758;DHT22;32509;47.750;-3.396;2023-01-09T10:07:55;10.40;99.90
46758;DHT22;32509;47.750;-3.396;2023-01-09T10:10:48;10.40;99.90
46758;DHT22;32509;47.750;-3.396;2023-01-09T10:13:18;10.40;99.90
46758;DHT22;32509;47.750;-3.396;2023-01-09T10:16:21;10.50;99.90
46758;DHT22;32509;47.750;-3.396;2023-01-09T10:37:58;10.70;99.90
46758;DHT22;32509;47.750;-3.396;2023-01-09T10:40:33;10.70;99.90
46758;DHT22;32509;47.750;-3.396;2023-01-09T10:43:08;10.70;99.90
46758;DHT22;32509;47.750;-3.396;2023-01-09T10:45:43;10.70;99.90
46758;DHT22;32509;47.750;-3.396;2023-01-09T10:48:23;10.70;99.90
46758;DHT22;32509;47.750;-3.396;2023-01-09T10:50:51;10.70;99.90
46758;DHT22;32509;47.750;-3.396;2023-01-09T10:53:29;10.70;99.90
46758;DHT22;32509;47.750;-3.396;2023-01-09T10:56:06;10.70;99.90
46758;DHT22;32509;47.750;-3.396;2023-01-09T10:58:35;10.70;99.90
46758;DHT22;32509;47.750;-3.396;2023-01-09T11:01:01;10.70;99.90
46758;DHT22;32509;47.750;-3.396;2023-01-09T11:03:28;10.70;99.90
46758;DHT22;32509;47.750;-3.396;2023-01-09T11:05:56;10.70;99.90
46758;DHT22;32509;47.750;-3.396;2023-01-09T11:11:01;10.70;99.90
46758;DHT22;32509;47.750;-3.396;2023-01-09T11:13:32;10.80;99.90
46758;DHT22;32509;47.750;-3.396;2023-01-09T11:16:28;10.80;99.90
46758;DHT22;32509;47.750;-3.396;2023-01-09T11:18:55;10.80;99.90
46758;DHT22;32509;47.750;-3.396;2023-01-09T11:21:35;10.80;99.90
46758;DHT22;32509;47.750;-3.396;2023-01-09T11:26:49;10.80;99.90
46758;DHT22;32509;47.750;-3.396;2023-01-09T11:29:17;10.80;99.90
46758;DHT22;32509;47.750;-3.396;2023-01-09T11:31:52;10.80;99.90
46758;DHT22;32509;47.750;-3.396;2023-01-09T11:34:21;10.80;99.90
46758;DHT22;32509;47.750;-3.396;2023-01-09T11:36:48;10.80;99.90
46758;DHT22;32509;47.750;-3.396;2023-01-09T11:39:29;10.80;99.90
46758;DHT22;32509;47.750;-3.396;2023-01-09T11:42:02;10.80;99.90
46758;DHT22;32509;47.750;-3.396;2023-01-09T11:44:30;10.80;99.90
46758;DHT22;32509;47.750;-3.396;2023-01-09T11:46:56;10.80;99.90
46758;DHT22;32509;47.750;-3.396;2023-01-09T11:49:24;10.80;99.90
46758;DHT22;32509;47.750;-3.396;2023-01-09T11:52:17;10.80;99.90
46758;DHT22;32509;47.750;-3.396;2023-01-09T11:54:57;10.80;99.90
46758;DHT22;32509;47.750;-3.396;2023-01-09T11:57:23;10.80;99.90
46758;DHT22;32509;47.750;-3.396;2023-01-09T11:59:50;10.80;99.90
46758;DHT22;32509;47.750;-3.396;2023-01-09T12:02:29;10.90;99.90
46758;DHT22;32509;47.750;-3.396;2023-01-09T12:14:05;10.90;99.90
46758;DHT22;32509;47.750;-3.396;2023-01-09T12:16:44;10.90;99.90
46758;DHT22;32509;47.750;-3.396;2023-01-09T12:53:13;11.00;99.90
46758;DHT22;32509;47.750;-3.396;2023-01-09T12:55:43;11.00;99.90
46758;DHT22;32509;47.750;-3.396;2023-01-09T12:58:31;11.00;99.90
46758;DHT22;32509;47.750;-3.396;2023-01-09T13:01:03;11.00;99.90
46758;DHT22;32509;47.750;-3.396;2023-01-09T13:06:17;11.00;99.90
46758;DHT22;32509;47.750;-3.396;2023-01-09T13:08:47;11.00;99.90
46758;DHT22;32509;47.750;-3.396;2023-01-09T13:11:26;11.00;99.90
46758;DHT22;32509;47.750;-3.396;2023-01-09T13:14:04;10.90;99.90
46758;DHT22;32509;47.750;-3.396;2023-01-09T13:16:43;10.80;99.90
46758;DHT22;32509;47.750;-3.396;2023-01-09T13:21:51;10.70;99.90
46758;DHT22;32509;47.750;-3.396;2023-01-09T13:24:30;10.60;99.90
46758;DHT22;32509;47.750;-3.396;2023-01-09T13:27:10;10.60;99.90
46758;DHT22;32509;47.750;-3.396;2023-01-09T13:29:43;10.60;99.90
46758;DHT22;32509;47.750;-3.396;2023-01-09T13:34:54;10.70;99.90
46758;DHT22;32509;47.750;-3.396;2023-01-09T13:37:26;10.70;99.90
46758;DHT22;32509;47.750;-3.396;2023-01-09T13:42:40;10.70;99.90
46758;DHT22;32509;47.750;-3.396;2023-01-09T13:47:43;10.80;99.90
46758;DHT22;32509;47.750;-3.396;2023-01-09T13:52:38;10.70;99.90
46758;DHT22;32509;47.750;-3.396;2023-01-09T13:57:38;10.80;99.90
46758;DHT22;32509;47.750;-3.396;2023-01-09T14:05:11;10.80;99.90
46758;DHT22;32509;47.750;-3.396;2023-01-09T14:07:45;10.80;99.90
46758;DHT22;32509;47.750;-3.396;2023-01-09T14:10:28;10.80;99.90
46758;DHT22;32509;47.750;-3.396;2023-01-09T14:12:56;10.80;99.90
46758;DHT22;32509;47.750;-3.396;2023-01-09T14:15:37;10.80;99.90
46758;DHT22;32509;47.750;-3.396;2023-01-09T14:18:30;10.80;99.90
46758;DHT22;32509;47.750;-3.396;2023-01-09T14:21:05;10.80;99.90
46758;DHT22;32509;47.750;-3.396;2023-01-09T14:26:44;10.80;99.90
46758;DHT22;32509;47.750;-3.396;2023-01-09T14:29:42;10.90;99.90
46758;DHT22;32509;47.750;-3.396;2023-01-09T14:37:33;10.80;99.90
46758;DHT22;32509;47.750;-3.396;2023-01-09T14:40:01;10.90;99.90
46758;DHT22;32509;47.750;-3.396;2023-01-09T14:42:28;10.90;99.90
46758;DHT22;32509;47.750;-3.396;2023-01-09T14:50:07;10.90;99.90
46758;DHT22;32509;47.750;-3.396;2023-01-09T14:52:47;10.90;99.90
46758;DHT22;32509;47.750;-3.396;2023-01-09T14:58:25;10.90;99.90
46758;DHT22;32509;47.750;-3.396;2023-01-09T15:01:17;10.90;99.90
46758;DHT22;32509;47.750;-3.396;2023-01-09T15:03:52;10.90;99.90
46758;DHT22;32509;47.750;-3.396;2023-01-09T15:06:42;10.90;99.90
46758;DHT22;32509;47.750;-3.396;2023-01-09T15:09:26;10.80;99.90
46758;DHT22;32509;47.750;-3.396;2023-01-09T15:11:55;10.80;99.90
46758;DHT22;32509;47.750;-3.396;2023-01-09T15:14:42;10.80;99.90
46758;DHT22;32509;47.750;-3.396;2023-01-09T15:17:23;10.80;99.90
46758;DHT22;32509;47.750;-3.396;2023-01-09T15:19:51;10.80;99.90
46758;DHT22;32509;47.750;-3.396;2023-01-09T15:22:29;10.80;99.90
46758;DHT22;32509;47.750;-3.396;2023-01-09T15:24:55;10.80;99.90
46758;DHT22;32509;47.750;-3.396;2023-01-09T15:27:22;10.90;99.90
46758;DHT22;32509;47.750;-3.396;2023-01-09T15:29:48;10.90;99.90
46758;DHT22;32509;47.750;-3.396;2023-01-09T15:32:28;10.90;99.90
46758;DHT22;32509;47.750;-3.396;2023-01-09T15:34:55;10.90;99.90
46758;DHT22;32509;47.750;-3.396;2023-01-09T15:37:33;10.90;99.90
46758;DHT22;32509;47.750;-3.396;2023-01-09T15:40:01;10.90;99.90
46758;DHT22;32509;47.750;-3.396;2023-01-09T15:42:31;10.80;99.90
46758;DHT22;32509;47.750;-3.396;2023-01-09T15:47:54;10.80;99.90
46758;DHT22;32509;47.750;-3.396;2023-01-09T15:50:38;10.80;99.90
46758;DHT22;32509;47.750;-3.396;2023-01-09T15:53:08;10.80;99.90
46758;DHT22;32509;47.750;-3.396;2023-01-09T15:55:34;10.80;99.90
46758;DHT22;32509;47.750;-3.396;2023-01-09T15:58:02;10.80;99.90
46758;DHT22;32509;47.750;-3.396;2023-01-09T16:02:54;10.80;99.90
46758;DHT22;32509;47.750;-3.396;2023-01-09T16:05:39;10.90;99.90
46758;DHT22;32509;47.750;-3.396;2023-01-09T16:10:50;10.80;99.90
46758;DHT22;32509;47.750;-3.396;2023-01-09T16:13:16;10.80;99.90
46758;DHT22;32509;47.750;-3.396;2023-01-09T16:15:44;10.80;99.90
46758;DHT22;32509;47.750;-3.396;2023-01-09T16:20:42;10.80;99.90
46758;DHT22;32509;47.750;-3.396;2023-01-09T16:23:54;10.80;99.90
46758;DHT22;32509;47.750;-3.396;2023-01-09T16:26:22;10.80;99.90
46758;DHT22;32509;47.750;-3.396;2023-01-09T16:28:49;10.80;99.90
46758;DHT22;32509;47.750;-3.396;2023-01-09T16:31:28;10.80;99.90
46758;DHT22;32509;47.750;-3.396;2023-01-09T16:34:03;10.80;99.90
46758;DHT22;32509;47.750;-3.396;2023-01-09T16:36:33;10.80;99.90
46758;DHT22;32509;47.750;-3.396;2023-01-09T16:38:59;10.80;99.90
46758;DHT22;32509;47.750;-3.396;2023-01-09T16:41:33;10.80;99.90
46758;DHT22;32509;47.750;-3.396;2023-01-09T16:44:17;10.80;99.90
46758;DHT22;32509;47.750;-3.396;2023-01-09T16:46:44;10.80;99.90
46758;DHT22;32509;47.750;-3.396;2023-01-09T16:49:19;10.80;99.90
46758;DHT22;32509;47.750;-3.396;2023-01-09T16:51:46;10.80;99.90
46758;DHT22;32509;47.750;-3.396;2023-01-09T16:54:12;10.80;99.90
46758;DHT22;32509;47.750;-3.396;2023-01-09T16:56:39;10.80;99.90
46758;DHT22;32509;47.750;-3.396;2023-01-09T16:59:14;10.80;99.90
46758;DHT22;32509;47.750;-3.396;2023-01-09T17:01:40;10.80;99.90
46758;DHT22;32509;47.750;-3.396;2023-01-09T17:04:12;10.80;99.90
46758;DHT22;32509;47.750;-3.396;2023-01-09T17:06:38;10.80;99.90
46758;DHT22;32509;47.750;-3.396;2023-01-09T17:09:05;10.80;99.90
46758;DHT22;32509;47.750;-3.396;2023-01-09T17:11:31;10.80;99.90
46758;DHT22;32509;47.750;-3.396;2023-01-09T17:13:58;10.80;99.90
46758;DHT22;32509;47.750;-3.396;2023-01-09T17:16:24;10.80;99.90
46758;DHT22;32509;47.750;-3.396;2023-01-09T17:18:50;10.80;99.90
46758;DHT22;32509;47.750;-3.396;2023-01-09T17:21:21;10.80;99.90
46758;DHT22;32509;47.750;-3.396;2023-01-09T17:23:48;10.80;99.90
46758;DHT22;32509;47.750;-3.396;2023-01-09T17:26:34;10.80;99.90
46758;DHT22;32509;47.750;-3.396;2023-01-09T17:29:19;10.80;99.90
46758;DHT22;32509;47.750;-3.396;2023-01-09T17:31:45;10.80;99.90
46758;DHT22;32509;47.750;-3.396;2023-01-09T17:34:11;10.80;99.90
46758;DHT22;32509;47.750;-3.396;2023-01-09T17:36:38;10.80;99.90
46758;DHT22;32509;47.750;-3.396;2023-01-09T17:39:03;10.80;99.90
46758;DHT22;32509;47.750;-3.396;2023-01-09T17:41:30;10.80;99.90
46758;DHT22;32509;47.750;-3.396;2023-01-09T17:43:57;10.80;99.90
46758;DHT22;32509;47.750;-3.396;2023-01-09T17:46:30;10.80;99.90
46758;DHT22;32509;47.750;-3.396;2023-01-09T17:48:57;10.80;99.90
46758;DHT22;32509;47.750;-3.396;2023-01-09T17:51:23;10.80;99.90
46758;DHT22;32509;47.750;-3.396;2023-01-09T17:53:49;10.80;99.90
46758;DHT22;32509;47.750;-3.396;2023-01-09T17:56:20;10.80;99.90
46758;DHT22;32509;47.750;-3.396;2023-01-09T17:58:47;10.80;99.90
46758;DHT22;32509;47.750;-3.396;2023-01-09T18:01:15;10.80;99.90
46758;DHT22;32509;47.750;-3.396;2023-01-09T18:03:43;10.80;99.90
46758;DHT22;32509;47.750;-3.396;2023-01-09T18:06:11;10.80;99.90
46758;DHT22;32509;47.750;-3.396;2023-01-09T18:08:37;10.80;99.90
46758;DHT22;32509;47.750;-3.396;2023-01-09T18:11:04;10.80;99.90
46758;DHT22;32509;47.750;-3.396;2023-01-09T18:13:31;10.80;99.90
46758;DHT22;32509;47.750;-3.396;2023-01-09T18:15:58;10.80;99.90
46758;DHT22;32509;47.750;-3.396;2023-01-09T18:18:26;10.80;99.90
46758;DHT22;32509;47.750;-3.396;2023-01-09T18:20:52;10.80;99.90
46758;DHT22;32509;47.750;-3.396;2023-01-09T18:23:19;10.80;99.90
46758;DHT22;32509;47.750;-3.396;2023-01-09T18:25:45;10.70;99.90
46758;DHT22;32509;47.750;-3.396;2023-01-09T18:28:11;10.70;99.90
46758;DHT22;32509;47.750;-3.396;2023-01-09T18:30:44;10.70;99.90
46758;DHT22;32509;47.750;-3.396;2023-01-09T18:33:13;10.70;99.90
46758;DHT22;32509;47.750;-3.396;2023-01-09T18:35:39;10.70;99.90
46758;DHT22;32509;47.750;-3.396;2023-01-09T18:38:06;10.80;99.90
46758;DHT22;32509;47.750;-3.396;2023-01-09T18:40:32;10.80;99.90
46758;DHT22;32509;47.750;-3.396;2023-01-09T18:42:58;10.70;99.90
46758;DHT22;32509;47.750;-3.396;2023-01-09T18:45:24;10.70;99.90
46758;DHT22;32509;47.750;-3.396;2023-01-09T18:47:50;10.80;99.90
46758;DHT22;32509;47.750;-3.396;2023-01-09T18:50:16;10.70;99.90
46758;DHT22;32509;47.750;-3.396;2023-01-09T18:52:42;10.80;99.90
46758;DHT22;32509;47.750;-3.396;2023-01-09T18:55:08;10.70;99.90
46758;DHT22;32509;47.750;-3.396;2023-01-09T18:57:34;10.70;99.90
46758;DHT22;32509;47.750;-3.396;2023-01-09T19:00:00;10.70;99.90
46758;DHT22;32509;47.750;-3.396;2023-01-09T19:02:26;10.70;99.90
46758;DHT22;32509;47.750;-3.396;2023-01-09T19:04:52;10.70;99.90
46758;DHT22;32509;47.750;-3.396;2023-01-09T19:07:18;10.70;99.90
46758;DHT22;32509;47.750;-3.396;2023-01-09T19:09:44;10.70;99.90
46758;DHT22;32509;47.750;-3.396;2023-01-09T19:12:10;10.70;99.90
46758;DHT22;32509;47.750;-3.396;2023-01-09T19:14:37;10.70;99.90
46758;DHT22;32509;47.750;-3.396;2023-01-09T19:17:03;10.70;99.90
46758;DHT22;32509;47.750;-3.396;2023-01-09T19:19:29;10.70;99.90
46758;DHT22;32509;47.750;-3.396;2023-01-09T19:21:57;10.70;99.90
46758;DHT22;32509;47.750;-3.396;2023-01-09T19:24:23;10.70;99.90
46758;DHT22;32509;47.750;-3.396;2023-01-09T19:26:49;10.70;99.90
46758;DHT22;32509;47.750;-3.396;2023-01-09T19:29:15;10.70;99.90
46758;DHT22;32509;47.750;-3.396;2023-01-09T19:31:42;10.70;99.90
46758;DHT22;32509;47.750;-3.396;2023-01-09T19:34:09;10.70;99.90
46758;DHT22;32509;47.750;-3.396;2023-01-09T19:36:36;10.70;99.90
46758;DHT22;32509;47.750;-3.396;2023-01-09T19:39:03;10.70;99.90
46758;DHT22;32509;47.750;-3.396;2023-01-09T19:41:29;10.60;99.90
46758;DHT22;32509;47.750;-3.396;2023-01-09T19:43:55;10.60;99.90
46758;DHT22;32509;47.750;-3.396;2023-01-09T19:46:22;10.60;99.90
46758;DHT22;32509;47.750;-3.396;2023-01-09T19:48:49;10.60;99.90
46758;DHT22;32509;47.750;-3.396;2023-01-09T19:51:18;10.70;99.90
46758;DHT22;32509;47.750;-3.396;2023-01-09T19:53:48;10.60;99.90
46758;DHT22;32509;47.750;-3.396;2023-01-09T19:56:16;10.70;99.90
46758;DHT22;32509;47.750;-3.396;2023-01-09T19:58:48;10.60;99.90
46758;DHT22;32509;47.750;-3.396;2023-01-09T20:01:16;10.60;99.90
46758;DHT22;32509;47.750;-3.396;2023-01-09T20:03:44;10.70;99.90
46758;DHT22;32509;47.750;-3.396;2023-01-09T20:06:14;10.60;99.90
46758;DHT22;32509;47.750;-3.396;2023-01-09T20:08:46;10.60;99.90
46758;DHT22;32509;47.750;-3.396;2023-01-09T20:11:13;10.60;99.90
46758;DHT22;32509;47.750;-3.396;2023-01-09T20:13:39;10.60;99.90
46758;DHT22;32509;47.750;-3.396;2023-01-09T20:16:06;10.60;99.90
46758;DHT22;32509;47.750;-3.396;2023-01-09T20:18:33;10.60;99.90
46758;DHT22;32509;47.750;-3.396;2023-01-09T20:21:00;10.60;99.90
46758;DHT22;32509;47.750;-3.396;2023-01-09T20:23:28;10.60;99.90
46758;DHT22;32509;47.750;-3.396;2023-01-09T20:25:54;10.60;99.90
46758;DHT22;32509;47.750;-3.396;2023-01-09T20:28:21;10.60;99.90
46758;DHT22;32509;47.750;-3.396;2023-01-09T20:30:48;10.60;99.90
46758;DHT22;32509;47.750;-3.396;2023-01-09T20:33:16;10.60;99.90
46758;DHT22;32509;47.750;-3.396;2023-01-09T20:35:42;10.60;99.90
46758;DHT22;32509;47.750;-3.396;2023-01-09T20:38:08;10.60;99.90
46758;DHT22;32509;47.750;-3.396;2023-01-09T20:40:35;10.50;99.90
46758;DHT22;32509;47.750;-3.396;2023-01-09T20:43:01;10.50;99.90
46758;DHT22;32509;47.750;-3.396;2023-01-09T20:45:27;10.60;99.90
46758;DHT22;32509;47.750;-3.396;2023-01-09T20:47:53;10.50;99.90
46758;DHT22;32509;47.750;-3.396;2023-01-09T20:50:19;10.50;99.90
46758;DHT22;32509;47.750;-3.396;2023-01-09T20:52:45;10.50;99.90
46758;DHT22;32509;47.750;-3.396;2023-01-09T20:55:11;10.50;99.90
46758;DHT22;32509;47.750;-3.396;2023-01-09T20:57:37;10.50;99.90
46758;DHT22;32509;47.750;-3.396;2023-01-09T21:00:04;10.50;99.90
46758;DHT22;32509;47.750;-3.396;2023-01-09T21:02:31;10.40;99.90
46758;DHT22;32509;47.750;-3.396;2023-01-09T21:04:57;10.40;99.90
46758;DHT22;32509;47.750;-3.396;2023-01-09T21:07:25;10.40;99.90
46758;DHT22;32509;47.750;-3.396;2023-01-09T21:09:53;10.40;99.90
46758;DHT22;32509;47.750;-3.396;2023-01-09T21:12:19;10.40;99.90
46758;DHT22;32509;47.750;-3.396;2023-01-09T21:15:05;10.40;99.90
46758;DHT22;32509;47.750;-3.396;2023-01-09T21:17:37;10.40;99.90
46758;DHT22;32509;47.750;-3.396;2023-01-09T21:20:05;10.40;99.90
46758;DHT22;32509;47.750;-3.396;2023-01-09T21:22:32;10.40;99.90
46758;DHT22;32509;47.750;-3.396;2023-01-09T21:24:58;10.40;99.90
46758;DHT22;32509;47.750;-3.396;2023-01-09T21:27:24;10.40;99.90
46758;DHT22;32509;47.750;-3.396;2023-01-09T21:29:53;10.40;99.90
46758;DHT22;32509;47.750;-3.396;2023-01-09T21:32:19;10.40;99.90
46758;DHT22;32509;47.750;-3.396;2023-01-09T21:34:46;10.30;99.90
46758;DHT22;32509;47.750;-3.396;2023-01-09T21:37:12;10.40;99.90
46758;DHT22;32509;47.750;-3.396;2023-01-09T21:39:38;10.30;99.90
46758;DHT22;32509;47.750;-3.396;2023-01-09T21:42:04;10.30;99.90
46758;DHT22;32509;47.750;-3.396;2023-01-09T21:44:48;10.30;99.90
46758;DHT22;32509;47.750;-3.396;2023-01-09T21:47:32;10.30;99.90
46758;DHT22;32509;47.750;-3.396;2023-01-09T21:49:58;10.40;99.90
46758;DHT22;32509;47.750;-3.396;2023-01-09T21:52:24;10.40;99.90
46758;DHT22;32509;47.750;-3.396;2023-01-09T21:54:50;10.40;99.90
46758;DHT22;32509;47.750;-3.396;2023-01-09T21:57:16;10.40;99.90
46758;DHT22;32509;47.750;-3.396;2023-01-09T21:59:42;10.40;99.90
46758;DHT22;32509;47.750;-3.396;2023-01-09T22:02:12;10.40;99.90
46758;DHT22;32509;47.750;-3.396;2023-01-09T22:04:39;10.40;99.90
46758;DHT22;32509;47.750;-3.396;2023-01-09T22:07:04;10.40;99.90
46758;DHT22;32509;47.750;-3.396;2023-01-09T22:09:30;10.40;99.90
46758;DHT22;32509;47.750;-3.396;2023-01-09T22:11:56;10.50;99.90
46758;DHT22;32509;47.750;-3.396;2023-01-09T22:14:22;10.50;99.90
46758;DHT22;32509;47.750;-3.396;2023-01-09T22:16:48;10.50;99.90
46758;DHT22;32509;47.750;-3.396;2023-01-09T22:19:14;10.50;99.90
46758;DHT22;32509;47.750;-3.396;2023-01-09T22:21:44;10.60;99.90
46758;DHT22;32509;47.750;-3.396;2023-01-09T22:24:16;10.60;99.90
46758;DHT22;32509;47.750;-3.396;2023-01-09T22:26:42;10.60;99.90
46758;DHT22;32509;47.750;-3.396;2023-01-09T22:29:08;10.60;99.90
46758;DHT22;32509;47.750;-3.396;2023-01-09T22:31:34;10.60;99.90
46758;DHT22;32509;47.750;-3.396;2023-01-09T22:34:04;10.60;99.90
46758;DHT22;32509;47.750;-3.396;2023-01-09T22:36:29;10.60;99.90
46758;DHT22;32509;47.750;-3.396;2023-01-09T22:38:56;10.60;99.90
46758;DHT22;32509;47.750;-3.396;2023-01-09T22:41:24;10.60;99.90
46758;DHT22;32509;47.750;-3.396;2023-01-09T22:43:50;10.70;99.90
46758;DHT22;32509;47.750;-3.396;2023-01-09T22:46:16;10.70;99.90
46758;DHT22;32509;47.750;-3.396;2023-01-09T22:48:42;10.70;99.90
46758;DHT22;32509;47.750;-3.396;2023-01-09T22:53:37;10.70;99.90
46758;DHT22;32509;47.750;-3.396;2023-01-09T22:56:05;10.70;99.90
46758;DHT22;32509;47.750;-3.396;2023-01-09T22:58:34;10.70;99.90
46758;DHT22;32509;47.750;-3.396;2023-01-09T23:01:01;10.70;99.90
46758;DHT22;32509;47.750;-3.396;2023-01-09T23:03:27;10.70;99.90
46758;DHT22;32509;47.750;-3.396;2023-01-09T23:06:00;10.70;99.90
46758;DHT22;32509;47.750;-3.396;2023-01-09T23:08:27;10.80;99.90
46758;DHT22;32509;47.750;-3.396;2023-01-09T23:10:52;10.80;99.90
46758;DHT22;32509;47.750;-3.396;2023-01-09T23:13:18;10.80;99.90
46758;DHT22;32509;47.750;-3.396;2023-01-09T23:15:44;10.80;99.90
46758;DHT22;32509;47.750;-3.396;2023-01-09T23:18:10;10.80;99.90
46758;DHT22;32509;47.750;-3.396;2023-01-09T23:20:35;10.80;99.90
46758;DHT22;32509;47.750;-3.396;2023-01-09T23:23:01;10.80;99.90
46758;DHT22;32509;47.750;-3.396;2023-01-09T23:25:27;10.90;99.90
46758;DHT22;32509;47.750;-3.396;2023-01-09T23:27:53;10.80;99.90
46758;DHT22;32509;47.750;-3.396;2023-01-09T23:30:18;10.90;99.90
46758;DHT22;32509;47.750;-3.396;2023-01-09T23:32:44;10.90;99.90
46758;DHT22;32509;47.750;-3.396;2023-01-09T23:35:10;10.90;99.90
46758;DHT22;32509;47.750;-3.396;2023-01-09T23:37:36;10.90;99.90
46758;DHT22;32509;47.750;-3.396;2023-01-09T23:40:02;10.90;99.90
46758;DHT22;32509;47.750;-3.396;2023-01-09T23:42:28;10.90;99.90
46758;DHT22;32509;47.750;-3.396;2023-01-09T23:45:13;10.90;99.90
46758;DHT22;32509;47.750;-3.396;2023-01-09T23:47:38;10.90;99.90
46758;DHT22;32509;47.750;-3.396;2023-01-09T23:50:04;10.90;99.90
46758;DHT22;32509;47.750;-3.396;2023-01-09T23:52:31;10.90;99.90
46758;DHT22;32509;47.750;-3.396;2023-01-09T23:54:57;10.90;99.90
46758;DHT22;32509;47.750;-3.396;2023-01-09T23:57:22;11.00;99.90
46758;DHT22;32509;47.750;-3.396;2023-01-09T23:59:48;11.00;99.90
